logo dgac
Miércoles 24 de Julio del 2024
Buscar por aerodromo o helipuerto
Ingrese nombre de aeródromo, localidad o designador OACI:

Aeródromo: Nuevo Chaitén (PUB) (SCTN)

Ubicación: Chaitén, X Región, Chile (42º 46' 55'' S, 72º 50' 06'' W) Ver ubicación en el mapa

Pistas

Luces
Orientación Dimensión Pendiente Superficie Resistencia APCH THR RWY PAPI
01 - 19 1200 x 30 0,20 Asfalto 20 F/A/W/T No Sí (3º)
Horas de operación HJ
Elevación 8,2 m (26,95 ft) ft
Otra Información Adm : DGAC
Uso : PUB
Ubicado: 18,6 Km NW de Chaitén
Fono : 652486393 CEL +56942882853
email : aro.nuevochaiten@dgac.gob.cl

Otra información ver AIP-Chile Volumen I AD 3.9-3.6-C
CCCM/FCCV Descargar CCCM/FCCV
andera de Chile
Mapa de Nuevo Chaitén (PUB) (SCTN)

Último METAR

METAR SCTN 240200Z AUTO 36012KT 9999 BKN037 OVC043 10/08 Q1019

Último TAF

TAF SCTN 231120Z 2312/2324 06005KT 2000 DZ OVC004 TN04/2313Z TX09/2319Z BECMG 2316/2318 360010KT 9999 NSW BKN008 OVC018

Últimas fotos cámaras

Imagen aerodromo Nuevo Chaitén (PUB) (SCTN) Norte tomada el 24-07-2024 02:16:40

Último NOTAM

C1939/24 NOTAMN Q)SCTZ/QMRHX/IV/NBO/A/000/999/4247S07250W005 A)SCTN B)2405031305 C)2408012359 E)RWY 01/19 DEBIDO A CONCENTRACION DE AVES DE PEQUENO Y MEDIANO TAMANO,CTN